createdAt,value
2024-02-11T12:01:53.398Z,86.00
2024-02-11T12:03:25.630Z,79.25
2024-02-11T12:04:57.723Z,74.75
2024-02-11T12:06:29.798Z,70.20
2024-02-11T12:08:01.927Z,70.80
2024-02-11T12:09:34.193Z,61.60
2024-02-11T12:11:10.030Z,70.50
2024-02-11T12:12:42.484Z,68.00
2024-02-11T12:14:14.778Z,62.50
2024-02-11T12:15:47.973Z,67.60
2024-02-11T12:17:22.021Z,70.20
2024-02-11T12:18:54.302Z,72.25
2024-02-11T12:20:26.600Z,68.00
2024-02-11T12:21:58.717Z,72.20
2024-02-11T12:23:32.650Z,75.20
2024-02-11T12:25:04.970Z,78.25
2024-02-11T12:26:39.762Z,79.75
2024-02-11T12:28:12.732Z,85.25
2024-02-11T12:29:58.347Z,89.00
2024-02-11T12:31:30.549Z,86.50
2024-02-11T12:33:03.934Z,83.00
2024-02-11T12:34:36.347Z,93.75
2024-02-11T12:36:12.564Z,99.50
2024-02-11T12:37:45.608Z,95.25
2024-02-11T12:39:17.729Z,100.25
2024-02-11T12:40:50.036Z,98.50
2024-02-11T12:42:22.260Z,97.25
2024-02-11T12:43:54.978Z,102.00
2024-02-11T12:45:27.509Z,98.50
2024-02-11T12:46:59.655Z,98.50
2024-02-11T12:48:31.985Z,100.25
2024-02-11T12:50:04.902Z,92.25
2024-02-11T12:51:37.025Z,102.50
2024-02-11T12:53:09.297Z,105.25
2024-02-11T12:54:41.402Z,105.50
2024-02-11T12:56:14.270Z,109.50
2024-02-11T12:57:47.421Z,103.25
2024-02-11T12:59:19.793Z,113.00
2024-02-11T13:00:51.869Z,109.50
2024-02-11T13:02:24.909Z,100.50
2024-02-11T13:03:57.183Z,112.00
2024-02-11T13:05:29.929Z,112.75
2024-02-11T13:07:02.168Z,107.25
2024-02-11T13:08:34.731Z,108.50
2024-02-11T13:10:13.044Z,111.50
2024-02-11T13:11:45.827Z,111.00
2024-02-11T13:13:17.768Z,107.50
2024-02-11T13:14:49.916Z,110.25
2024-02-11T13:16:22.677Z,117.25
2024-02-11T13:17:55.017Z,108.25
2024-02-11T13:19:27.179Z,119.50
2024-02-11T13:20:59.561Z,117.75
2024-02-11T13:22:31.581Z,112.00
2024-02-11T13:24:03.630Z,120.75
2024-02-11T13:25:36.979Z,115.50
2024-02-11T13:27:08.962Z,113.75
2024-02-11T13:28:42.753Z,117.25
2024-02-11T13:30:16.645Z,110.00
2024-02-11T13:31:48.722Z,117.50
2024-02-11T13:33:20.891Z,111.00
2024-02-11T13:34:54.024Z,112.50
2024-02-11T13:36:28.587Z,133.75
2024-02-11T13:38:00.950Z,163.00
2024-02-11T13:39:34.755Z,129.67
2024-02-11T13:41:08.081Z,130.00
2024-02-11T13:42:43.380Z,126.25
2024-02-11T13:44:15.462Z,123.75
2024-02-11T13:45:47.567Z,122.00
2024-02-11T13:47:19.687Z,127.75
2024-02-11T13:48:52.692Z,119.25
2024-02-11T13:50:25.050Z,119.75
2024-02-11T13:51:57.229Z,116.00
2024-02-11T13:53:29.521Z,158.33
2024-02-11T13:55:02.567Z,148.00
2024-02-11T13:56:34.604Z,137.33
2024-02-11T13:58:06.805Z,129.00
2024-02-11T13:59:39.088Z,137.33
2024-02-11T14:01:11.767Z,137.67
2024-02-11T14:02:44.541Z,136.67
2024-02-11T14:04:17.889Z,134.33
2024-02-11T14:05:50.158Z,139.00
2024-02-11T14:07:22.293Z,142.67
2024-02-11T14:08:55.305Z,131.33
2024-02-11T14:10:27.868Z,132.67
2024-02-11T14:12:00.190Z,137.67
2024-02-11T14:13:32.815Z,125.50
2024-02-11T14:15:12.685Z,132.00
2024-02-11T14:16:45.040Z,136.33
2024-02-11T14:18:18.298Z,129.33
2024-02-11T14:19:50.449Z,142.33
2024-02-11T14:21:22.615Z,193.75
2024-02-11T14:22:54.782Z,182.75
2024-02-11T14:24:27.539Z,186.00
2024-02-11T14:25:59.794Z,179.25
2024-02-11T14:27:32.027Z,145.00
2024-02-11T14:29:04.120Z,132.67
2024-02-11T14:30:39.213Z,130.67
2024-02-11T14:32:12.125Z,128.00
2024-02-11T14:33:45.007Z,134.00
2024-02-11T14:35:17.509Z,125.33
2024-02-11T14:36:52.498Z,116.75
2024-02-11T14:38:24.877Z,110.00
2024-02-11T14:39:57.016Z,105.50
2024-02-11T14:41:29.272Z,106.00
2024-02-11T14:43:06.086Z,86.25
2024-02-11T14:44:39.138Z,98.50
2024-02-11T14:46:11.387Z,94.25
2024-02-11T14:47:44.602Z,95.75
2024-02-11T14:49:17.172Z,99.25
2024-02-11T14:50:49.222Z,87.00
2024-02-11T14:52:21.341Z,84.00
2024-02-11T14:53:54.263Z,95.75
2024-02-11T14:55:26.407Z,94.75
2024-02-11T14:56:58.683Z,93.00
2024-02-11T14:58:31.753Z,87.25
2024-02-11T15:00:06.375Z,90.75
2024-02-11T15:01:39.031Z,93.00
2024-02-11T15:03:11.458Z,93.25
2024-02-11T15:04:43.782Z,96.00
2024-02-11T15:06:17.175Z,90.50
2024-02-11T15:07:49.567Z,95.75
2024-02-11T15:09:23.449Z,93.50
2024-02-11T15:10:56.984Z,94.25
2024-02-11T15:12:29.934Z,79.75
2024-02-11T15:14:01.993Z,91.75
2024-02-11T15:15:34.009Z,90.75
2024-02-11T15:17:06.440Z,112.25
2024-02-11T15:18:38.623Z,123.75
2024-02-11T15:20:12.413Z,96.75
2024-02-11T15:21:45.445Z,97.25
2024-02-11T15:23:17.808Z,81.75
2024-02-11T15:24:50.388Z,83.25
2024-02-11T15:26:25.265Z,74.75
2024-02-11T15:27:58.004Z,65.25
2024-02-11T15:29:30.350Z,57.75
2024-02-11T15:31:04.649Z,51.50
2024-02-11T15:32:38.886Z,48.50
2024-02-11T15:34:11.537Z,57.00
2024-02-11T15:35:49.730Z,49.50
2024-02-11T15:37:28.404Z,54.50
2024-02-11T15:39:00.957Z,58.50
2024-02-11T15:40:33.388Z,57.50
2024-02-11T15:42:08.620Z,132.75
2024-02-11T15:43:41.227Z,159.67
2024-02-11T15:45:13.367Z,130.00
2024-02-11T15:46:45.456Z,95.25
2024-02-11T15:48:19.257Z,86.50
2024-02-11T15:49:51.756Z,88.75
2024-02-11T15:51:24.826Z,85.75
2024-02-11T15:52:58.204Z,77.00
2024-02-11T15:54:30.425Z,79.00
2024-02-11T15:56:02.656Z,77.50
2024-02-11T15:57:34.951Z,79.25
2024-02-11T15:59:07.285Z,78.20
2024-02-11T16:00:39.413Z,74.60
2024-02-11T16:02:12.632Z,73.20
2024-02-11T16:03:48.421Z,75.80
2024-02-11T16:05:25.252Z,69.40
2024-02-11T16:06:58.671Z,66.80
2024-02-11T16:08:34.506Z,66.60
2024-02-11T16:10:12.004Z,74.80
2024-02-11T16:11:43.974Z,62.40
2024-02-11T16:13:17.068Z,65.00
2024-02-11T16:14:49.110Z,69.40
2024-02-11T16:16:21.339Z,64.75
2024-02-11T16:17:53.883Z,61.25
2024-02-11T16:19:29.032Z,64.00
2024-02-11T16:21:03.115Z,65.00
2024-02-11T16:22:35.626Z,62.50
2024-02-11T16:24:07.929Z,56.75
2024-02-11T16:25:40.187Z,60.25
2024-02-11T16:27:12.676Z,58.00
2024-02-11T16:28:45.352Z,60.50
2024-02-11T16:30:17.883Z,57.50
2024-02-11T16:31:50.054Z,59.50
2024-02-11T16:33:22.886Z,57.25
2024-02-11T16:34:55.662Z,52.50
2024-02-11T16:36:27.792Z,56.00
2024-02-11T16:38:00.574Z,54.25
2024-02-11T16:39:32.706Z,55.75
2024-02-11T16:41:05.170Z,50.50
2024-02-11T16:42:37.462Z,52.50
2024-02-11T16:44:09.662Z,49.50
2024-02-11T16:45:42.029Z,46.00
2024-02-11T16:47:14.044Z,47.00
2024-02-11T16:48:46.248Z,42.25
2024-02-11T16:50:18.429Z,46.75
2024-02-11T16:51:52.048Z,49.00
2024-02-11T16:53:24.104Z,43.25
2024-02-11T16:54:56.223Z,48.50
2024-02-11T16:56:28.725Z,43.25
2024-02-11T16:58:03.796Z,47.50
2024-02-11T16:59:35.875Z,45.75
2024-02-11T17:01:08.943Z,42.75
2024-02-11T17:02:41.612Z,40.50
2024-02-11T17:04:16.020Z,43.25
2024-02-11T17:05:48.151Z,41.50
2024-02-11T17:07:20.497Z,43.25
2024-02-11T17:08:53.054Z,40.25
2024-02-11T17:10:25.167Z,40.75
2024-02-11T17:11:57.353Z,41.25
2024-02-11T17:13:29.634Z,41.25
2024-02-11T17:15:03.455Z,40.75
2024-02-11T17:16:38.151Z,37.75
2024-02-11T17:18:10.298Z,35.75
2024-02-11T17:19:42.781Z,36.25
2024-02-11T17:21:15.918Z,41.50
2024-02-11T17:22:50.880Z,41.00
2024-02-11T17:24:23.336Z,42.25
2024-02-11T17:25:55.762Z,34.50
2024-02-11T17:27:28.060Z,42.75
2024-02-11T17:29:01.588Z,48.50
2024-02-11T17:30:36.115Z,37.75
2024-02-11T17:32:21.187Z,35.25
2024-02-11T17:34:03.783Z,36.25
2024-02-11T17:35:36.749Z,39.00
2024-02-11T17:37:08.908Z,35.25
2024-02-11T17:38:41.529Z,35.25
2024-02-11T17:40:14.057Z,34.20
2024-02-11T17:41:50.640Z,33.80
2024-02-11T17:43:22.897Z,33.20
2024-02-11T17:44:56.444Z,33.20
2024-02-11T17:46:29.374Z,32.20
2024-02-11T17:48:01.992Z,34.20
2024-02-11T17:49:35.385Z,31.80
2024-02-11T17:51:08.847Z,32.40
2024-02-11T17:52:42.648Z,35.00
2024-02-11T17:54:16.748Z,38.25
2024-02-11T17:55:50.007Z,46.25
2024-02-11T17:57:22.644Z,43.50
2024-02-11T17:58:54.949Z,50.25
2024-02-11T18:00:28.033Z,46.75
2024-02-11T18:02:00.804Z,53.00
2024-02-11T18:03:34.104Z,48.50
2024-02-11T18:05:08.948Z,47.50
2024-02-11T18:06:44.161Z,47.50
2024-02-11T18:08:17.103Z,51.50
2024-02-11T18:09:49.467Z,51.25
2024-02-11T18:11:21.679Z,50.50
2024-02-11T18:12:56.145Z,54.75
2024-02-11T18:14:28.355Z,56.00
2024-02-11T18:16:00.919Z,51.50
2024-02-11T18:17:33.187Z,59.25
2024-02-11T18:19:06.833Z,64.00
2024-02-11T18:20:41.064Z,61.00
2024-02-11T18:22:13.862Z,68.25
2024-02-11T18:23:46.069Z,70.80
2024-02-11T18:25:27.940Z,73.80
2024-02-11T18:27:08.324Z,72.00
2024-02-11T18:28:44.401Z,73.60
2024-02-11T18:30:16.532Z,76.25
2024-02-11T18:31:48.968Z,82.75
2024-02-11T18:33:22.285Z,86.25
2024-02-11T18:34:55.121Z,81.00
2024-02-11T18:36:28.645Z,86.25
2024-02-11T18:38:01.683Z,90.75
2024-02-11T18:39:33.824Z,87.00
2024-02-11T18:41:06.164Z,92.50
2024-02-11T18:42:40.038Z,91.25
2024-02-11T18:44:12.460Z,98.75
2024-02-11T18:45:46.329Z,91.50
2024-02-11T18:47:18.569Z,98.75
2024-02-11T18:48:53.151Z,102.25
2024-02-11T18:50:26.018Z,99.25
2024-02-11T18:51:58.421Z,105.75
2024-02-11T18:53:30.666Z,103.50
2024-02-11T18:55:02.771Z,98.00
2024-02-11T18:56:38.155Z,106.75
2024-02-11T18:58:10.383Z,107.75
2024-02-11T18:59:46.508Z,105.50
2024-02-11T19:01:18.845Z,98.50
2024-02-11T19:02:51.250Z,101.25
2024-02-11T19:04:24.440Z,105.25
2024-02-11T19:05:56.969Z,105.50
2024-02-11T19:07:29.694Z,107.25
2024-02-11T19:09:02.248Z,108.25
2024-02-11T19:10:36.872Z,103.50
2024-02-11T19:12:12.365Z,106.00
2024-02-11T19:13:45.228Z,109.00
2024-02-11T19:15:17.335Z,106.25
2024-02-11T19:16:49.528Z,113.75
2024-02-11T19:18:21.706Z,125.50
2024-02-11T19:19:53.832Z,134.33
2024-02-11T19:21:26.789Z,106.50
2024-02-11T19:22:59.028Z,109.75
2024-02-11T19:24:31.178Z,106.25
2024-02-11T19:26:03.706Z,106.50
2024-02-11T19:27:38.742Z,109.00
2024-02-11T19:29:11.832Z,111.75
2024-02-11T19:30:44.997Z,115.00
2024-02-11T19:32:18.472Z,129.67
2024-02-11T19:33:50.747Z,107.50
2024-02-11T19:35:22.929Z,107.50
2024-02-11T19:36:55.513Z,111.50
2024-02-11T19:38:28.117Z,102.75
2024-02-11T19:40:00.309Z,103.00
2024-02-11T19:41:32.813Z,92.50
2024-02-11T19:43:05.248Z,95.00
2024-02-11T19:44:37.306Z,99.25
2024-02-11T19:46:12.483Z,102.25
2024-02-11T19:47:45.002Z,94.00
2024-02-11T19:49:20.258Z,93.75
2024-02-11T19:50:52.512Z,96.75
2024-02-11T19:52:25.020Z,98.75
2024-02-11T19:53:57.113Z,92.75
2024-02-11T19:55:30.468Z,91.75
2024-02-11T19:57:05.130Z,90.00
2024-02-11T19:58:40.190Z,86.50
2024-02-11T20:00:13.112Z,92.75
2024-02-11T20:01:47.844Z,115.75
2024-02-11T20:03:22.459Z,119.75
2024-02-11T20:04:55.586Z,122.50
2024-02-11T20:06:28.650Z,101.50
2024-02-11T20:08:01.059Z,94.25
2024-02-11T20:09:36.566Z,96.25
2024-02-11T20:11:10.290Z,89.25
2024-02-11T20:12:46.964Z,82.50
2024-02-11T20:14:20.721Z,81.75
2024-02-11T20:15:55.408Z,81.50
2024-02-11T20:17:27.669Z,78.25
2024-02-11T20:19:01.144Z,81.00
2024-02-11T20:20:35.994Z,84.00
2024-02-11T20:22:10.896Z,87.75
2024-02-11T20:23:44.724Z,93.00
2024-02-11T20:25:17.643Z,91.25
2024-02-11T20:26:49.798Z,83.25
2024-02-11T20:28:21.928Z,90.25
2024-02-11T20:29:54.004Z,96.50
2024-02-11T20:31:26.149Z,81.00
2024-02-11T20:32:58.421Z,92.00
2024-02-11T20:34:31.192Z,94.25
2024-02-11T20:36:03.604Z,89.00
2024-02-11T20:37:38.822Z,88.25
2024-02-11T20:39:12.253Z,91.75
2024-02-11T20:40:45.290Z,85.75
2024-02-11T20:42:20.916Z,90.25
2024-02-11T20:43:53.739Z,89.50
2024-02-11T20:45:25.853Z,86.75
2024-02-11T20:46:59.119Z,90.25
2024-02-11T20:48:31.984Z,84.00
2024-02-11T20:50:08.599Z,83.50
2024-02-11T20:51:40.926Z,81.00
2024-02-11T20:53:13.534Z,83.75
2024-02-11T20:54:45.639Z,78.00
2024-02-11T20:56:18.626Z,81.50
2024-02-11T20:57:50.683Z,79.50
2024-02-11T20:59:22.872Z,80.25
2024-02-11T21:00:55.240Z,75.20
2024-02-11T21:02:27.603Z,74.20
2024-02-11T21:04:00.041Z,79.00
2024-02-11T21:05:32.490Z,79.20
2024-02-11T21:07:04.897Z,66.80
2024-02-11T21:08:37.657Z,73.40
2024-02-11T21:10:09.893Z,68.40
2024-02-11T21:11:44.833Z,71.60
2024-02-11T21:13:18.671Z,69.00
2024-02-11T21:14:52.383Z,66.75
2024-02-11T21:16:25.043Z,63.50
2024-02-11T21:17:57.815Z,56.75
2024-02-11T21:19:32.098Z,61.25
2024-02-11T21:21:04.545Z,63.50
2024-02-11T21:22:37.326Z,66.75
2024-02-11T21:24:12.202Z,63.75
2024-02-11T21:25:44.659Z,62.25
2024-02-11T21:27:19.758Z,66.25
2024-02-11T21:28:53.355Z,73.75
2024-02-11T21:30:26.789Z,64.80
2024-02-11T21:31:59.831Z,62.80
2024-02-11T21:33:32.244Z,67.00
2024-02-11T21:35:04.729Z,72.00
2024-02-11T21:36:37.027Z,69.20
2024-02-11T21:38:09.876Z,69.40
2024-02-11T21:39:44.197Z,70.60
2024-02-11T21:41:19.537Z,69.20
2024-02-11T21:42:51.921Z,72.60
2024-02-11T21:44:25.621Z,68.20
2024-02-11T21:45:57.690Z,72.80
2024-02-11T21:47:32.010Z,61.00
2024-02-11T21:49:06.195Z,66.25
2024-02-11T21:50:38.397Z,55.00
2024-02-11T21:52:12.150Z,56.50
2024-02-11T21:53:45.194Z,59.00
2024-02-11T21:55:19.342Z,58.25
2024-02-11T21:56:51.884Z,53.00
2024-02-11T21:58:24.199Z,58.50
2024-02-11T21:59:56.421Z,54.50
2024-02-11T22:01:29.211Z,54.50
2024-02-11T22:03:01.662Z,55.75
2024-02-11T22:04:33.952Z,62.50
2024-02-11T22:06:08.512Z,56.25
2024-02-11T22:07:41.171Z,58.75
2024-02-11T22:09:14.909Z,58.00
2024-02-11T22:10:48.014Z,63.50
2024-02-11T22:12:20.107Z,60.75
2024-02-11T22:13:54.160Z,61.75
2024-02-11T22:15:26.893Z,61.50
2024-02-11T22:16:59.427Z,66.60
2024-02-11T22:18:31.857Z,67.60
2024-02-11T22:20:05.820Z,72.80
2024-02-11T22:21:39.223Z,71.60
2024-02-11T22:23:13.168Z,71.40
2024-02-11T22:24:45.335Z,65.20
2024-02-11T22:26:17.467Z,73.20
2024-02-11T22:27:49.908Z,48.00
2024-02-11T22:29:22.217Z,68.00
2024-02-11T22:30:54.404Z,61.00
2024-02-11T22:32:28.490Z,67.50
2024-02-11T22:34:01.212Z,96.75
2024-02-11T22:35:33.401Z,87.00
2024-02-11T22:37:05.575Z,89.75
2024-02-11T22:38:37.802Z,72.80
2024-02-11T22:40:12.913Z,69.20
2024-02-11T22:41:45.825Z,65.60
2024-02-11T22:43:17.936Z,64.50
2024-02-11T22:44:50.662Z,67.75
2024-02-11T22:46:23.025Z,63.25
2024-02-11T22:47:55.540Z,61.50
2024-02-11T22:49:27.785Z,65.75
2024-02-11T22:50:59.904Z,63.75
2024-02-11T22:52:33.202Z,58.25
2024-02-11T22:54:06.042Z,34.75
2024-02-11T22:55:38.148Z,67.60
2024-02-11T22:57:10.378Z,64.75
2024-02-11T22:58:42.475Z,64.50
2024-02-11T23:00:33.608Z,69.00
2024-02-11T23:02:08.662Z,63.00
2024-02-11T23:03:41.565Z,64.80
2024-02-11T23:05:14.545Z,68.20
2024-02-11T23:06:47.051Z,64.25
2024-02-11T23:08:19.380Z,64.00
2024-02-11T23:09:51.534Z,69.25
2024-02-11T23:11:23.870Z,62.50
2024-02-11T23:12:56.129Z,68.40
2024-02-11T23:14:28.517Z,69.40
2024-02-11T23:16:01.134Z,65.00
2024-02-11T23:17:33.778Z,67.60
2024-02-11T23:19:08.966Z,64.00
2024-02-11T23:20:41.065Z,67.75
2024-02-11T23:22:14.063Z,62.75
2024-02-11T23:23:48.138Z,59.25
2024-02-11T23:25:21.094Z,67.75
2024-02-11T23:26:55.013Z,64.50
2024-02-11T23:28:27.713Z,62.50
2024-02-11T23:30:00.280Z,60.25
2024-02-11T23:31:32.306Z,57.00
2024-02-11T23:33:07.815Z,58.75
2024-02-11T23:34:40.123Z,56.50
